Time;durP1;ratioP1;P1;durP2;ratioP2;P2;SDS_P1;SDS_P2;PMS_P1;PMS_P2;Temp;Humidity;BMP_temperature;BMP_pressure;BME280_temperature;BME280_humidity;BME280_pressure;Samples;Min_cycle;Max_cycle;Signal;HPM_P1;HPM_P2
2021/05/07 00:00:58;;;;;;;4.20;1.90;;;8.80;99.90;;;;;;4970221;28;20479;-52
2021/05/07 00:03:24;;;;;;;4.20;1.90;;;8.80;99.90;;;;;;4971155;28;20380;-52
2021/05/07 00:05:55;;;;;;;4.75;2.15;;;8.90;99.90;;;;;;4969864;28;20399;-52
2021/05/07 00:08:36;;;;;;;4.00;1.70;;;8.80;99.90;;;;;;4971211;28;20406;-52
2021/05/07 00:11:10;;;;;;;4.30;2.00;;;8.90;99.90;;;;;;4970241;28;20384;-52
2021/05/07 00:13:37;;;;;;;4.90;2.20;;;8.90;99.90;;;;;;4971006;28;20420;-52
2021/05/07 00:16:03;;;;;;;4.20;1.70;;;8.90;99.90;;;;;;4970106;28;20419;-52
2021/05/07 00:18:28;;;;;;;3.80;1.50;;;8.90;99.90;;;;;;4970995;28;20412;-50
2021/05/07 00:20:54;;;;;;;3.80;1.70;;;8.80;99.90;;;;;;4970090;28;20767;-51
2021/05/07 00:23:20;;;;;;;3.67;1.40;;;8.70;99.90;;;;;;4970833;28;20388;-51
2021/05/07 00:25:46;;;;;;;4.05;1.73;;;8.70;99.90;;;;;;4970234;28;20471;-51
2021/05/07 00:28:13;;;;;;;4.00;1.60;;;8.80;99.90;;;;;;4970633;28;20501;-51
2021/05/07 00:30:40;;;;;;;3.80;1.50;;;8.80;99.90;;;;;;4970574;28;20407;-56
2021/05/07 00:33:07;;;;;;;3.67;1.55;;;8.90;99.90;;;;;;4970398;28;20400;-53
2021/05/07 00:35:33;;;;;;;3.70;1.40;;;8.90;99.90;;;;;;4970528;28;20399;-51
2021/05/07 00:37:59;;;;;;;3.70;1.40;;;8.70;99.90;;;;;;4969538;28;20999;-51
2021/05/07 00:40:25;;;;;;;4.70;1.80;;;8.70;99.90;;;;;;4970666;28;20388;-51
2021/05/07 00:42:51;;;;;;;3.78;1.58;;;8.70;99.90;;;;;;4969917;28;20402;-52
2021/05/07 00:45:18;;;;;;;4.70;1.40;;;8.70;99.90;;;;;;4970869;28;20886;-52
2021/05/07 00:48:01;;;;;;;3.80;1.60;;;8.70;99.90;;;;;;4952634;28;20756;-52
2021/05/07 00:50:32;;;;;;;3.70;1.30;;;8.80;99.90;;;;;;4970573;28;20391;-52
2021/05/07 00:52:58;;;;;;;4.00;1.80;;;8.80;99.90;;;;;;4969713;28;20878;-51
2021/05/07 00:55:25;;;;;;;4.20;1.67;;;8.70;99.90;;;;;;4953393;28;20392;-52
2021/05/07 00:57:51;;;;;;;3.70;1.50;;;8.60;99.90;;;;;;4969617;28;20981;-51
2021/05/07 01:00:17;;;;;;;4.40;1.70;;;8.60;99.90;;;;;;4970476;28;20396;-52
2021/05/07 01:02:43;;;;;;;3.92;1.67;;;8.50;99.90;;;;;;4969970;28;20475;-56
2021/05/07 01:05:09;;;;;;;4.30;1.60;;;8.40;99.90;;;;;;4970354;28;20388;-52
2021/05/07 01:07:37;;;;;;;3.95;1.70;;;8.40;99.90;;;;;;4970660;28;20547;-51
2021/05/07 01:10:09;;;;;;;5.00;1.75;;;8.30;99.90;;;;;;4969602;28;20454;-52
2021/05/07 01:12:40;;;;;;;4.10;1.60;;;8.40;99.90;;;;;;4970420;28;20461;-52
2021/05/07 01:15:10;;;;;;;4.22;1.60;;;8.30;99.90;;;;;;4970180;28;20388;-52
2021/05/07 01:17:39;;;;;;;5.65;2.08;;;8.40;99.90;;;;;;4970852;28;20403;-52
2021/05/07 01:20:22;;;;;;;7.35;1.70;;;8.30;99.90;;;;;;4973265;28;20418;-52
2021/05/07 01:22:59;;;;;;;3.95;1.70;;;8.30;99.90;;;;;;4973247;28;20392;-52
2021/05/07 01:25:30;;;;;;;4.15;1.70;;;8.10;99.90;;;;;;4956611;28;20435;-52
2021/05/07 01:27:59;;;;;;;4.22;1.80;;;8.20;99.90;;;;;;4972524;28;20408;-52
2021/05/07 01:30:28;;;;;;;4.75;1.92;;;8.10;99.90;;;;;;4973805;28;20482;-51
2021/05/07 01:32:54;;;;;;;4.28;1.60;;;8.10;99.90;;;;;;4972984;28;20403;-51
2021/05/07 01:35:23;;;;;;;4.20;1.77;;;8.10;99.90;;;;;;4973476;28;20415;-51
2021/05/07 01:37:52;;;;;;;4.40;1.90;;;8.10;99.90;;;;;;4972639;28;20874;-52
2021/05/07 01:40:28;;;;;;;5.13;2.00;;;8.10;99.90;;;;;;4973805;28;20439;-52
2021/05/07 01:42:55;;;;;;;4.30;1.60;;;8.00;99.90;;;;;;4972477;28;20384;-52
2021/05/07 01:45:24;;;;;;;4.47;1.80;;;7.80;99.90;;;;;;4973440;28;20397;-51
2021/05/07 01:47:50;;;;;;;5.05;2.10;;;7.80;99.90;;;;;;4972663;28;20431;-53
2021/05/07 01:50:19;;;;;;;4.30;1.90;;;7.90;99.90;;;;;;4973727;28;20400;-51
2021/05/07 01:52:45;;;;;;;6.00;1.98;;;7.80;99.90;;;;;;4955369;28;20396;-51
2021/05/07 01:55:13;;;;;;;3.92;1.70;;;7.70;99.90;;;;;;4973412;28;20424;-51
2021/05/07 01:57:39;;;;;;;4.60;2.10;;;7.80;99.90;;;;;;4973216;28;20401;-56
2021/05/07 02:00:16;;;;;;;4.20;1.80;;;7.80;99.90;;;;;;4972929;28;20392;-51
2021/05/07 02:02:43;;;;;;;4.10;1.70;;;7.70;99.90;;;;;;4972716;28;20388;-56
2021/05/07 02:05:10;;;;;;;5.10;2.60;;;6.40;99.90;;;;;;4973090;28;20468;-52
2021/05/07 02:07:35;;;;;;;4.30;1.92;;;7.90;99.90;;;;;;4973615;28;20426;-51
2021/05/07 02:10:04;;;;;;;5.10;2.10;;;8.00;99.90;;;;;;4972482;28;20381;-51
2021/05/07 02:12:29;;;;;;;5.30;1.92;;;7.90;99.90;;;;;;4973032;28;20454;-51
2021/05/07 02:14:55;;;;;;;5.40;2.10;;;7.90;99.90;;;;;;4972122;28;20397;-52
2021/05/07 02:17:20;;;;;;;4.70;2.20;;;7.90;99.90;;;;;;4973154;28;20389;-52
2021/05/07 02:19:46;;;;;;;4.80;2.27;;;7.80;99.90;;;;;;4972047;28;20458;-51
2021/05/07 02:22:12;;;;;;;4.78;2.00;;;7.80;99.90;;;;;;4972865;28;20380;-52
2021/05/07 02:24:38;;;;;;;4.88;2.03;;;7.80;99.90;;;;;;4955746;28;20392;-53
2021/05/07 02:27:04;;;;;;;4.90;2.30;;;7.70;99.90;;;;;;4972238;28;20383;-52
2021/05/07 02:29:30;;;;;;;4.80;2.40;;;7.60;99.90;;;;;;4972990;28;20407;-52
2021/05/07 02:31:56;;;;;;;4.93;2.30;;;7.70;99.90;;;;;;4972108;28;20383;-51
2021/05/07 02:34:21;;;;;;;5.25;2.63;;;7.60;99.90;;;;;;4972709;28;20467;-51
2021/05/07 02:36:47;;;;;;;5.40;2.17;;;7.70;99.90;;;;;;4954499;28;20400;-55
2021/05/07 02:39:15;;;;;;;5.10;2.58;;;7.60;99.90;;;;;;4972430;28;20418;-52
2021/05/07 02:41:43;;;;;;;5.40;2.60;;;7.70;99.90;;;;;;4972331;28;20439;-56
2021/05/07 02:44:09;;;;;;;4.97;2.40;;;7.70;99.90;;;;;;4972036;28;20446;-51
2021/05/07 02:46:35;;;;;;;4.95;2.58;;;7.90;99.90;;;;;;4973042;28;20943;-51
2021/05/07 02:49:03;;;;;;;6.43;2.40;;;7.90;99.90;;;;;;4971609;28;20396;-51
2021/05/07 02:51:30;;;;;;;6.15;2.92;;;7.80;99.90;;;;;;4972261;28;20392;-52
2021/05/07 02:53:56;;;;;;;4.95;2.47;;;7.80;99.90;;;;;;4971834;28;20394;-52
2021/05/07 02:56:21;;;;;;;5.35;2.70;;;7.80;99.90;;;;;;4972454;28;20392;-51
2021/05/07 02:58:47;;;;;;;6.80;2.80;;;7.80;99.90;;;;;;4971588;28;20416;-52
2021/05/07 03:01:13;;;;;;;5.40;2.50;;;7.90;99.90;;;;;;4972367;28;20396;-52
2021/05/07 03:03:39;;;;;;;6.10;2.67;;;7.90;99.90;;;;;;4971987;28;20391;-52
2021/05/07 03:06:05;;;;;;;5.28;2.50;;;7.90;99.90;;;;;;4971066;28;20946;-52
2021/05/07 03:08:30;;;;;;;6.90;2.75;;;7.80;99.90;;;;;;4971552;28;20403;-52
2021/05/07 03:10:56;;;;;;;6.18;2.85;;;7.80;99.90;;;;;;4971048;28;20388;-52
2021/05/07 03:13:22;;;;;;;5.10;2.60;;;7.70;99.90;;;;;;4971808;28;20392;-52
2021/05/07 03:15:48;;;;;;;5.78;3.00;;;7.70;99.90;;;;;;4971404;28;20388;-52
2021/05/07 03:18:20;;;;;;;8.30;3.33;;;7.70;99.90;;;;;;4971822;28;20400;-51
2021/05/07 03:20:47;;;;;;;5.40;2.90;;;7.80;99.90;;;;;;4953973;28;20400;-53
2021/05/07 03:23:13;;;;;;;6.28;2.90;;;7.70;99.90;;;;;;4971918;28;20384;-51
2021/05/07 03:25:39;;;;;;;6.00;3.20;;;7.70;99.90;;;;;;4954483;28;20396;-52
2021/05/07 03:28:05;;;;;;;6.53;3.70;;;7.80;99.90;;;;;;4970478;28;20451;-52
2021/05/07 03:30:33;;;;;;;9.23;3.47;;;7.80;99.90;;;;;;4971816;28;20396;-51
2021/05/07 03:32:59;;;;;;;7.37;3.97;;;7.70;99.90;;;;;;4970533;28;20804;-51
2021/05/07 03:35:24;;;;;;;6.30;3.38;;;7.70;99.90;;;;;;4971724;28;20399;-52
2021/05/07 03:37:50;;;;;;;8.63;3.90;;;7.70;99.90;;;;;;4970750;28;20441;-52
2021/05/07 03:40:16;;;;;;;6.63;4.00;;;7.70;99.90;;;;;;4971060;28;20388;-51
2021/05/07 03:42:44;;;;;;;8.07;4.10;;;7.60;99.90;;;;;;4971083;28;20395;-56
2021/05/07 03:45:10;;;;;;;6.75;4.18;;;7.50;99.90;;;;;;4971368;28;20384;-51
2021/05/07 03:47:36;;;;;;;7.57;4.40;;;7.50;99.90;;;;;;4971064;28;20384;-51
2021/05/07 03:50:02;;;;;;;7.13;4.38;;;7.50;99.90;;;;;;4970482;28;20918;-52
2021/05/07 03:52:28;;;;;;;11.57;4.55;;;7.50;99.90;;;;;;4971809;28;20396;-52
2021/05/07 03:54:53;;;;;;;7.37;4.20;;;7.50;99.90;;;;;;4970454;28;20384;-52
2021/05/07 03:57:19;;;;;;;8.30;4.50;;;7.40;99.90;;;;;;4970830;28;20399;-52
2021/05/07 03:59:45;;;;;;;8.27;4.97;;;7.40;99.90;;;;;;4970632;28;20424;-56
2021/05/07 04:02:10;;;;;;;7.97;4.63;;;7.50;99.90;;;;;;4970682;28;20491;-51
2021/05/07 04:04:38;;;;;;;8.80;4.80;;;7.60;99.90;;;;;;4963895;28;20384;-52
2021/05/07 04:07:03;;;;;;;7.35;4.15;;;7.50;99.90;;;;;;4962079;28;20970;-52
2021/05/07 04:09:34;;;;;;;8.60;4.90;;;7.60;99.90;;;;;;4969974;28;20483;-52
2021/05/07 04:12:13;;;;;;;7.68;5.00;;;7.70;99.90;;;;;;4970403;28;20424;-52
2021/05/07 04:14:39;;;;;;;8.02;4.50;;;7.70;99.90;;;;;;4971229;28;20442;-53
2021/05/07 04:17:05;;;;;;;8.37;4.90;;;7.70;99.90;;;;;;4968869;28;20384;-53
2021/05/07 04:19:30;;;;;;;7.93;4.50;;;7.80;99.90;;;;;;4970623;28;20458;-52
2021/05/07 04:21:56;;;;;;;8.63;5.25;;;7.70;99.90;;;;;;4970024;28;20499;-53
2021/05/07 04:24:22;;;;;;;8.57;5.30;;;7.50;99.90;;;;;;4971583;28;20424;-52
2021/05/07 04:26:48;;;;;;;10.53;5.83;;;7.60;99.90;;;;;;4952932;28;20399;-53
2021/05/07 04:29:14;;;;;;;8.40;4.90;;;7.50;99.90;;;;;;4960526;28;20424;-53
2021/05/07 04:31:39;;;;;;;8.43;4.90;;;7.50;99.90;;;;;;4959118;28;20894;-52
2021/05/07 04:34:06;;;;;;;9.45;4.97;;;7.40;99.90;;;;;;4960177;28;21026;-52
2021/05/07 04:36:33;;;;;;;8.33;4.53;;;7.50;99.90;;;;;;4957081;28;20877;-52
2021/05/07 04:38:58;;;;;;;8.73;4.57;;;7.40;99.90;;;;;;4958263;28;20414;-52
2021/05/07 04:41:24;;;;;;;6.90;3.87;;;7.40;99.90;;;;;;4951221;29;20891;-52
2021/05/07 04:43:53;;;;;;;7.13;3.53;;;7.20;99.90;;;;;;4950684;29;20421;-52
2021/05/07 04:46:19;;;;;;;7.10;3.90;;;7.10;99.90;;;;;;4951714;29;20432;-52
2021/05/07 04:48:45;;;;;;;6.18;3.90;;;7.10;99.90;;;;;;4951123;29;20397;-56
2021/05/07 04:51:10;;;;;;;7.37;4.20;;;7.20;99.90;;;;;;4952172;28;20798;-52
2021/05/07 04:53:36;;;;;;;7.88;4.07;;;7.30;99.90;;;;;;4957133;28;20842;-53
2021/05/07 04:56:02;;;;;;;7.77;4.20;;;7.40;99.90;;;;;;4963000;28;20854;-51
2021/05/07 04:58:27;;;;;;;5.97;3.60;;;7.50;99.90;;;;;;4964146;28;20458;-52
2021/05/07 05:00:53;;;;;;;6.97;3.80;;;7.50;99.90;;;;;;4963861;28;20752;-52
2021/05/07 05:03:18;;;;;;;6.43;3.85;;;7.60;99.90;;;;;;4953377;28;20394;-52
2021/05/07 05:05:44;;;;;;;7.07;3.93;;;7.50;99.90;;;;;;4964583;28;20471;-57
2021/05/07 05:08:10;;;;;;;6.20;3.40;;;7.40;99.90;;;;;;4964475;28;20405;-51
2021/05/07 05:10:35;;;;;;;6.80;3.77;;;7.50;99.90;;;;;;4954620;28;20393;-51
2021/05/07 05:13:01;;;;;;;7.10;3.83;;;7.50;99.90;;;;;;4954137;29;20456;-51
2021/05/07 05:15:27;;;;;;;6.33;3.40;;;7.50;99.90;;;;;;4954873;29;20465;-51
2021/05/07 05:17:52;;;;;;;7.32;3.80;;;7.50;99.90;;;;;;4954071;29;20410;-52
2021/05/07 05:20:18;;;;;;;6.40;3.50;;;7.50;99.90;;;;;;4954487;29;20489;-51
2021/05/07 05:22:45;;;;;;;6.72;3.55;;;7.40;99.90;;;;;;4954491;29;20741;-55
2021/05/07 05:25:11;;;;;;;6.85;3.70;;;7.40;99.90;;;;;;4954269;29;20390;-52
2021/05/07 05:27:37;;;;;;;7.53;4.10;;;7.50;99.90;;;;;;4962138;28;20400;-52
2021/05/07 05:30:06;;;;;;;7.50;4.10;;;7.70;99.90;;;;;;4959136;28;20757;-52
2021/05/07 05:32:32;;;;;;;9.27;4.38;;;7.70;99.90;;;;;;4962528;28;20549;-52
2021/05/07 05:34:58;;;;;;;6.55;3.80;;;7.70;99.90;;;;;;4964233;28;20967;-52
2021/05/07 05:37:24;;;;;;;8.70;4.17;;;7.60;99.90;;;;;;4954474;29;20744;-52
2021/05/07 05:39:50;;;;;;;7.63;4.32;;;7.50;99.90;;;;;;4953462;29;20416;-52
2021/05/07 05:42:16;;;;;;;8.30;3.97;;;7.40;99.90;;;;;;4969441;28;20487;-51
2021/05/07 05:44:41;;;;;;;8.35;5.20;;;7.30;99.90;;;;;;4973629;28;20384;-52
2021/05/07 05:47:07;;;;;;;8.17;4.40;;;7.50;99.90;;;;;;4964812;28;20659;-52
2021/05/07 05:49:32;;;;;;;8.20;4.60;;;7.60;99.90;;;;;;4954118;29;20424;-52
2021/05/07 05:51:58;;;;;;;7.97;4.70;;;7.70;99.90;;;;;;4954836;28;20923;-52
2021/05/07 05:54:24;;;;;;;10.68;5.35;;;7.60;99.90;;;;;;4959467;28;20773;-54
2021/05/07 05:56:50;;;;;;;10.33;5.33;;;7.60;99.90;;;;;;4969947;28;20395;-52
2021/05/07 05:59:15;;;;;;;9.63;5.70;;;7.70;99.90;;;;;;4953449;29;20418;-52
2021/05/07 06:01:41;;;;;;;12.10;5.23;;;7.80;99.90;;;;;;4941260;28;20839;-52
2021/05/07 06:04:07;;;;;;;8.70;5.32;;;7.90;99.90;;;;;;4971582;28;20411;-52
2021/05/07 06:06:32;;;;;;;10.17;5.37;;;8.00;99.90;;;;;;4971026;28;20494;-53
2021/05/07 06:08:58;;;;;;;10.30;5.57;;;7.90;99.90;;;;;;4961618;28;20477;-53
2021/05/07 06:11:24;;;;;;;9.50;6.00;;;7.80;99.90;;;;;;4963684;28;20582;-52
2021/05/07 06:13:49;;;;;;;10.60;5.70;;;7.90;99.90;;;;;;4960931;28;20493;-55
2021/05/07 06:16:15;;;;;;;10.40;6.10;;;8.00;99.90;;;;;;4969138;28;20398;-53
2021/05/07 06:18:40;;;;;;;9.27;5.53;;;8.00;99.90;;;;;;4972334;28;20420;-52
2021/05/07 06:21:06;;;;;;;10.20;6.00;;;8.10;99.90;;;;;;4965167;28;20392;-53
2021/05/07 06:23:32;;;;;;;9.73;5.80;;;8.00;99.90;;;;;;4954978;28;20452;-54
2021/05/07 06:25:58;;;;;;;9.73;6.20;;;8.20;99.90;;;;;;4935998;28;20895;-53
2021/05/07 06:28:23;;;;;;;10.00;5.73;;;8.20;99.90;;;;;;4947872;28;20941;-53
2021/05/07 06:30:49;;;;;;;10.38;6.50;;;8.20;99.90;;;;;;4952592;28;20397;-55
2021/05/07 06:33:15;;;;;;;10.00;6.23;;;8.20;99.90;;;;;;4959003;28;20392;-53
2021/05/07 06:35:40;;;;;;;9.93;5.88;;;6.20;99.90;;;;;;4971868;28;20471;-52
2021/05/07 06:38:10;;;;;;;9.73;5.90;;;8.30;99.90;;;;;;4971197;28;20426;-52
2021/05/07 06:40:36;;;;;;;11.27;5.95;;;8.30;99.90;;;;;;4971291;28;20887;-51
2021/05/07 06:43:02;;;;;;;9.30;5.90;;;8.20;99.90;;;;;;4970735;28;20416;-52
2021/05/07 06:45:27;;;;;;;11.03;6.17;;;8.20;99.90;;;;;;4971619;28;20381;-52
2021/05/07 06:47:53;;;;;;;10.15;6.40;;;8.10;99.90;;;;;;4960065;28;20409;-52
2021/05/07 06:50:20;;;;;;;9.98;6.10;;;7.90;99.90;;;;;;4952494;29;20393;-52
2021/05/07 06:52:46;;;;;;;9.50;6.38;;;8.00;99.90;;;;;;4952777;29;20409;-54
2021/05/07 06:55:12;;;;;;;10.57;6.77;;;7.90;99.90;;;;;;4951361;28;20395;-52
2021/05/07 06:57:39;;;;;;;12.23;7.00;;;8.70;99.90;;;;;;4951783;29;20397;-52
2021/05/07 07:00:07;;;;;;;11.20;6.05;;;7.90;99.90;;;;;;4951805;29;20413;-52
2021/05/07 07:02:33;;;;;;;11.07;6.10;;;7.90;99.90;;;;;;4951354;28;20427;-52
2021/05/07 07:04:59;;;;;;;11.10;6.30;;;8.00;99.90;;;;;;4956110;28;20394;-52
2021/05/07 07:07:26;;;;;;;11.85;6.90;;;8.10;99.90;;;;;;4962666;28;20396;-52
2021/05/07 07:09:52;;;;;;;12.85;6.32;;;8.20;99.90;;;;;;4958874;28;20401;-53
2021/05/07 07:12:18;;;;;;;11.73;6.70;;;8.20;99.90;;;;;;4953279;28;20480;-53
2021/05/07 07:14:43;;;;;;;10.55;6.30;;;8.40;99.90;;;;;;4967496;28;20424;-53
2021/05/07 07:17:09;;;;;;;10.48;6.45;;;8.50;99.90;;;;;;4969291;28;20384;-53
2021/05/07 07:19:35;;;;;;;10.83;6.80;;;8.70;99.90;;;;;;4966409;28;20466;-52
2021/05/07 07:22:03;;;;;;;12.80;6.80;;;8.80;99.90;;;;;;4956474;28;20397;-52
2021/05/07 07:24:28;;;;;;;13.13;6.90;;;8.60;99.90;;;;;;4953551;28;20398;-53
2021/05/07 07:26:55;;;;;;;12.32;7.15;;;8.70;99.90;;;;;;4966987;28;21075;-53
2021/05/07 07:29:21;;;;;;;11.18;6.50;;;8.60;99.90;;;;;;4971373;28;20430;-53
2021/05/07 07:31:47;;;;;;;14.20;7.22;;;8.40;99.90;;;;;;4960508;28;20487;-57
2021/05/07 07:34:12;;;;;;;12.63;6.70;;;8.40;99.90;;;;;;4953715;28;20485;-53
2021/05/07 07:36:38;;;;;;;11.97;7.00;;;8.40;99.90;;;;;;4968745;28;20795;-54
2021/05/07 07:39:05;;;;;;;11.00;7.10;;;8.30;99.90;;;;;;4954636;28;20420;-52
2021/05/07 07:41:30;;;;;;;11.00;6.90;;;8.30;99.90;;;;;;4951282;28;20754;-52
2021/05/07 07:43:56;;;;;;;10.27;6.32;;;9.50;99.90;;;;;;4960440;28;20392;-52
2021/05/07 07:46:22;;;;;;;11.80;7.70;;;8.40;99.90;;;;;;4956591;28;20414;-53
2021/05/07 07:48:48;;;;;;;11.95;7.00;;;8.70;99.90;;;;;;4950846;29;20452;-55
2021/05/07 07:51:14;;;;;;;10.40;6.30;;;9.20;99.90;;;;;;4953601;28;20879;-51
2021/05/07 07:53:40;;;;;;;10.50;5.88;;;9.80;99.90;;;;;;4957266;28;20380;-53
2021/05/07 07:56:06;;;;;;;12.07;6.60;;;10.30;99.90;;;;;;4956833;28;20392;-51
2021/05/07 07:58:31;;;;;;;9.90;6.30;;;10.50;99.90;;;;;;4954723;28;20895;-51
2021/05/07 08:00:57;;;;;;;10.67;6.20;;;11.10;99.90;;;;;;4956894;28;20409;-51
2021/05/07 08:03:23;;;;;;;12.38;6.90;;;10.90;99.90;;;;;;4970386;28;20380;-51
2021/05/07 08:05:48;;;;;;;10.20;6.57;;;10.70;99.90;;;;;;4970071;28;20385;-56
2021/05/07 08:08:14;;;;;;;11.20;5.65;;;11.20;99.90;;;;;;4970269;28;20471;-51
2021/05/07 08:10:40;;;;;;;10.47;6.00;;;11.70;99.90;;;;;;4957762;28;20398;-52
2021/05/07 08:13:05;;;;;;;10.27;6.28;;;12.70;99.90;;;;;;4950773;29;20382;-52
2021/05/07 08:15:31;;;;;;;10.50;6.30;;;13.60;99.90;;;;;;4950863;29;20382;-52
2021/05/07 08:17:57;;;;;;;10.95;7.03;;;13.10;99.90;;;;;;4954212;28;20425;-52
2021/05/07 08:20:24;;;;;;;11.38;6.25;;;12.20;99.90;;;;;;4965288;28;20521;-53
2021/05/07 08:22:50;;;;;;;10.60;6.05;;;11.90;99.90;;;;;;4970361;28;20479;-56
2021/05/07 08:25:16;;;;;;;11.17;6.60;;;10.70;99.90;;;;;;4969935;28;20960;-52
2021/05/07 08:27:42;;;;;;;10.65;6.50;;;11.20;99.90;;;;;;4957861;28;20509;-54
2021/05/07 08:30:10;;;;;;;9.90;5.55;;;12.80;99.90;;;;;;4954265;29;21043;-53
2021/05/07 08:32:36;;;;;;;9.55;5.70;;;14.20;99.90;;;;;;4973812;28;20483;-53
2021/05/07 08:35:02;;;;;;;9.35;5.80;;;14.80;99.90;;;;;;4970590;28;20476;-53
2021/05/07 08:37:28;;;;;;;10.23;6.22;;;15.20;99.90;;;;;;4956281;28;20481;-52
2021/05/07 08:39:55;;;;;;;11.20;6.40;;;15.80;99.90;;;;;;4958710;28;20480;-51
2021/05/07 08:42:21;;;;;;;9.18;5.68;;;15.80;99.90;;;;;;4957302;28;20408;-52
2021/05/07 08:44:50;;;;;;;9.00;5.80;;;16.70;99.90;;;;;;4956507;28;20442;-52
2021/05/07 08:47:20;;;;;;;11.75;6.10;;;16.00;99.90;;;;;;4953934;29;20417;-54
2021/05/07 08:49:50;;;;;;;9.48;6.00;;;13.80;99.90;;;;;;4957387;28;20948;-55
2021/05/07 08:52:17;;;;;;;9.68;6.30;;;13.90;99.90;;;;;;4963477;28;20777;-53
2021/05/07 08:54:43;;;;;;;9.05;5.85;;;13.20;99.90;;;;;;4963031;28;20468;-53
2021/05/07 08:57:09;;;;;;;8.52;5.60;;;13.80;99.90;;;;;;4961476;28;20387;-53
2021/05/07 08:59:34;;;;;;;11.97;5.97;;;14.60;99.90;;;;;;4975298;28;20515;-52
2021/05/07 09:02:01;;;;;;;8.30;5.40;;;16.10;99.90;;;;;;4964516;28;20838;-52
2021/05/07 09:04:27;;;;;;;8.35;5.30;;;15.70;98.90;;;;;;4954154;29;20897;-54
2021/05/07 09:06:53;;;;;;;9.63;5.72;;;14.30;99.80;;;;;;4956360;28;20481;-57
2021/05/07 09:09:29;;;;;;;8.90;5.50;;;12.60;99.90;;;;;;4937296;29;20401;-54
2021/05/07 09:12:00;;;;;;;10.90;5.80;;;12.20;99.90;;;;;;4958083;28;20424;-51
2021/05/07 09:14:27;;;;;;;9.60;4.95;;;11.60;99.90;;;;;;4946334;28;20569;-52
2021/05/07 09:17:03;;;;;;;8.35;5.38;;;11.50;99.90;;;;;;4968937;28;20431;-58
2021/05/07 09:19:37;;;;;;;8.27;5.37;;;13.20;99.90;;;;;;4973833;28;20411;-50
2021/05/07 09:22:02;;;;;;;9.88;5.63;;;14.80;99.90;;;;;;4972445;28;20796;-53
2021/05/07 09:24:36;;;;;;;9.30;5.70;;;15.30;99.90;;;;;;4967598;28;20453;-52
2021/05/07 09:27:02;;;;;;;8.37;4.73;;;15.40;99.90;;;;;;4961403;28;20384;-51
2021/05/07 09:29:32;;;;;;;8.50;5.10;;;14.40;96.60;;;;;;4964054;28;20415;-52
2021/05/07 09:32:02;;;;;;;8.07;4.90;;;13.40;97.00;;;;;;4962150;28;20398;-52
2021/05/07 09:34:35;;;;;;;8.30;5.30;;;14.10;98.70;;;;;;4970290;28;20393;-52
2021/05/07 09:37:00;;;;;;;8.07;5.18;;;14.70;99.00;;;;;;4971563;28;21015;-50
2021/05/07 09:39:27;;;;;;;8.10;4.90;;;15.30;96.30;;;;;;4960411;28;20490;-52
2021/05/07 09:41:53;;;;;;;8.70;5.10;;;14.80;98.10;;;;;;4961417;28;20397;-55
2021/05/07 09:44:21;;;;;;;8.85;5.20;;;14.80;96.60;;;;;;4963148;28;20388;-52
2021/05/07 09:46:48;;;;;;;8.15;4.53;;;13.10;97.40;;;;;;4961024;28;20406;-50
2021/05/07 09:49:29;;;;;;;7.10;4.00;;;12.60;97.00;;;;;;4958429;28;21425;-52
2021/05/07 09:51:56;;;;;;;8.90;4.38;;;12.50;99.20;;;;;;4960480;28;20951;-51
2021/05/07 09:54:22;;;;;;;8.60;5.20;;;13.70;99.30;;;;;;4970433;28;20392;-51
2021/05/07 09:56:48;;;;;;;8.25;4.60;;;14.70;96.10;;;;;;4972880;28;20486;-51
2021/05/07 09:59:18;;;;;;;7.50;4.10;;;14.90;94.10;;;;;;4962198;28;20443;-52
2021/05/07 10:01:45;;;;;;;7.50;4.05;;;15.30;93.40;;;;;;4960037;28;20407;-51
2021/05/07 10:04:12;;;;;;;8.10;4.50;;;15.20;93.70;;;;;;4957231;28;20999;-51
2021/05/07 10:06:39;;;;;;;7.03;4.40;;;14.80;93.30;;;;;;4955753;28;20428;-51
2021/05/07 10:09:06;;;;;;;7.78;4.20;;;15.00;93.60;;;;;;4969521;28;20393;-51
2021/05/07 10:11:41;;;;;;;8.40;4.30;;;14.70;90.40;;;;;;4960338;28;20492;-53
2021/05/07 10:14:16;;;;;;;7.22;3.80;;;13.60;90.90;;;;;;4956343;28;20742;-51
2021/05/07 10:16:42;;;;;;;6.85;4.00;;;12.80;93.00;;;;;;4962622;28;20425;-52
2021/05/07 10:19:12;;;;;;;7.43;3.95;;;12.90;94.50;;;;;;4960843;28;20883;-51
2021/05/07 10:21:48;;;;;;;9.10;3.72;;;13.40;91.70;;;;;;4965150;28;20412;-51
2021/05/07 10:24:19;;;;;;;8.30;3.60;;;14.60;92.10;;;;;;4959399;28;20402;-51
2021/05/07 10:26:53;;;;;;;6.80;3.80;;;13.80;86.80;;;;;;4958059;28;20906;-51
2021/05/07 10:29:21;;;;;;;6.65;3.53;;;13.50;91.20;;;;;;4968007;28;20446;-52
2021/05/07 10:31:52;;;;;;;7.40;3.60;;;13.60;92.60;;;;;;4961588;28;20407;-51
2021/05/07 10:34:19;;;;;;;7.75;3.83;;;12.80;90.80;;;;;;4961896;28;20500;-52
2021/05/07 10:36:50;;;;;;;6.90;2.92;;;12.50;91.80;;;;;;4958072;28;20384;-50
2021/05/07 10:39:17;;;;;;;6.18;3.42;;;11.90;90.10;;;;;;4962305;28;20416;-51
2021/05/07 10:41:44;;;;;;;5.95;3.47;;;11.80;91.10;;;;;;4959448;28;20397;-53
2021/05/07 10:44:10;;;;;;;6.10;3.08;;;12.10;92.40;;;;;;4956718;28;20393;-51
2021/05/07 10:46:36;;;;;;;6.40;3.60;;;11.80;93.20;;;;;;4960517;28;20481;-51
2021/05/07 10:49:02;;;;;;;8.45;3.95;;;11.60;95.30;;;;;;4961366;28;21112;-51
2021/05/07 10:51:28;;;;;;;6.60;3.50;;;11.90;95.50;;;;;;4960559;28;20382;-55
2021/05/07 10:54:14;;;;;;;7.73;4.00;;;11.80;93.90;;;;;;4957566;28;21095;-57
2021/05/07 10:56:44;;;;;;;8.30;3.60;;;12.30;94.60;;;;;;4952082;28;20394;-51
2021/05/07 10:59:17;;;;;;;6.70;3.90;;;11.90;94.40;;;;;;4959854;28;20474;-51
2021/05/07 11:01:57;;;;;;;7.50;3.67;;;12.20;95.60;;;;;;4960308;28;20439;-51
2021/05/07 11:04:23;;;;;;;7.38;4.40;;;12.70;93.10;;;;;;4962146;28;20896;-51
2021/05/07 11:06:59;;;;;;;9.02;4.00;;;13.40;94.70;;;;;;4960333;28;20444;-51
2021/05/07 11:09:27;;;;;;;6.60;3.70;;;13.90;92.50;;;;;;4944874;28;20830;-51
2021/05/07 11:11:55;;;;;;;7.18;3.45;;;13.80;91.60;;;;;;4971135;28;20419;-58
2021/05/07 11:14:43;;;;;;;6.82;3.28;;;13.10;90.60;;;;;;4971042;28;20399;-56
2021/05/07 11:17:17;;;;;;;9.10;4.33;;;13.00;93.50;;;;;;4970538;28;20748;-51
2021/05/07 11:19:43;;;;;;;7.40;3.85;;;12.90;91.10;;;;;;4971225;28;20451;-51
2021/05/07 11:22:09;;;;;;;6.53;3.80;;;12.90;91.70;;;;;;4970462;28;20534;-51
2021/05/07 11:24:42;;;;;;;7.20;3.80;;;13.20;94.10;;;;;;4968230;28;20425;-51
2021/05/07 11:27:26;;;;;;;6.95;3.95;;;13.60;92.30;;;;;;4959196;28;20448;-53
2021/05/07 11:30:04;;;;;;;7.20;3.50;;;14.00;90.90;;;;;;4951881;29;20449;-57
2021/05/07 11:32:30;;;;;;;8.40;3.90;;;13.70;92.00;;;;;;4951892;29;20389;-51
2021/05/07 11:35:01;;;;;;;9.55;4.20;;;13.90;91.60;;;;;;4949969;29;20418;-56
2021/05/07 11:37:29;;;;;;;7.65;3.88;;;13.60;90.10;;;;;;4950014;28;20390;-56
2021/05/07 11:40:03;;;;;;;7.85;3.70;;;13.90;92.20;;;;;;4959099;28;20416;-56
2021/05/07 11:42:30;;;;;;;7.15;3.58;;;14.40;92.50;;;;;;4958082;28;20404;-55
2021/05/07 11:44:55;;;;;;;6.35;3.40;;;14.30;88.20;;;;;;4955304;28;20881;-56
2021/05/07 11:47:21;;;;;;;7.10;3.80;;;13.90;86.10;;;;;;4960750;28;20403;-55
2021/05/07 11:49:49;;;;;;;7.20;3.30;;;13.40;85.70;;;;;;4958450;28;20390;-55
2021/05/07 11:52:16;;;;;;;7.07;3.53;;;13.70;86.20;;;;;;4959223;28;20388;-54
2021/05/07 11:54:46;;;;;;;6.40;3.10;;;14.00;85.70;;;;;;4959232;28;20395;-55
2021/05/07 11:57:20;;;;;;;7.37;3.23;;;13.60;82.10;;;;;;4960127;28;20394;-54
2021/05/07 11:59:50;;;;;;;6.40;3.03;;;13.30;81.90;;;;;;4953286;28;20426;-54
2021/05/07 12:02:21;;;;;;;9.40;3.00;;;13.70;87.10;;;;;;4958822;28;20489;-54
2021/05/07 12:04:46;;;;;;;8.30;3.50;;;13.20;84.30;;;;;;4961273;28;20942;-54
2021/05/07 12:07:28;;;;;;;7.40;3.22;;;13.30;82.10;;;;;;4959854;28;20394;-54
2021/05/07 12:09:56;;;;;;;6.47;3.20;;;13.00;82.30;;;;;;4967538;28;20498;-57
2021/05/07 12:12:24;;;;;;;7.55;3.70;;;13.00;81.40;;;;;;4965375;28;20396;-51
2021/05/07 12:15:12;;;;;;;5.72;3.00;;;13.10;82.70;;;;;;4970609;28;20412;-51
2021/05/07 12:17:39;;;;;;;7.43;3.20;;;12.80;80.90;;;;;;4970526;28;20419;-59
2021/05/07 12:20:05;;;;;;;7.83;3.67;;;12.90;85.70;;;;;;4969969;28;20462;-51
2021/05/07 12:22:34;;;;;;;7.85;3.20;;;12.60;88.00;;;;;;4970373;28;20504;-51
2021/05/07 12:25:12;;;;;;;6.05;3.08;;;12.10;90.00;;;;;;4969467;28;20439;-51
2021/05/07 12:27:39;;;;;;;8.15;3.80;;;11.30;91.30;;;;;;4961040;28;20425;-52
2021/05/07 12:30:24;;;;;;;7.28;3.55;;;11.10;92.80;;;;;;4961059;28;20432;-52
2021/05/07 12:32:53;;;;;;;7.50;3.80;;;11.10;93.50;;;;;;4959931;28;20433;-50
2021/05/07 12:35:20;;;;;;;6.85;3.60;;;9.20;93.70;;;;;;4958423;28;20386;-50
2021/05/07 12:37:46;;;;;;;7.43;3.85;;;11.10;93.90;;;;;;4961584;28;20382;-51
2021/05/07 12:40:12;;;;;;;7.93;3.63;;;11.10;94.60;;;;;;4959066;28;20566;-49
2021/05/07 12:42:38;;;;;;;7.50;4.00;;;11.40;95.20;;;;;;4957989;28;20392;-49
2021/05/07 12:45:04;;;;;;;9.27;3.92;;;11.80;94.90;;;;;;4961621;28;20403;-52
2021/05/07 12:47:30;;;;;;;9.60;4.28;;;12.30;93.90;;;;;;4959637;28;20882;-50
2021/05/07 12:49:55;;;;;;;7.43;3.90;;;12.80;95.50;;;;;;4958682;28;20431;-59
2021/05/07 12:52:22;;;;;;;8.20;3.50;;;13.00;93.00;;;;;;4959043;28;20879;-50